sensor_id;sensor_type;location;lat;lon;timestamp;P1;durP1;ratioP1;P2;durP2;ratioP2
7154;SDS011;3619;53.784;10.440;2022-12-29T00:00:09;3.93;;;3.83;;
7154;SDS011;3619;53.784;10.440;2022-12-29T00:02:42;3.77;;;3.67;;
7154;SDS011;3619;53.784;10.440;2022-12-29T00:05:15;4.23;;;4.13;;
7154;SDS011;3619;53.784;10.440;2022-12-29T00:07:43;3.83;;;3.73;;
7154;SDS011;3619;53.784;10.440;2022-12-29T00:10:10;3.40;;;3.30;;
7154;SDS011;3619;53.784;10.440;2022-12-29T00:12:37;3.60;;;3.50;;
7154;SDS011;3619;53.784;10.440;2022-12-29T00:15:23;3.17;;;3.07;;
7154;SDS011;3619;53.784;10.440;2022-12-29T00:18:05;3.63;;;3.53;;
7154;SDS011;3619;53.784;10.440;2022-12-29T00:20:32;3.47;;;3.37;;
7154;SDS011;3619;53.784;10.440;2022-12-29T00:23:17;3.50;;;3.40;;
7154;SDS011;3619;53.784;10.440;2022-12-29T00:26:02;3.63;;;3.53;;
7154;SDS011;3619;53.784;10.440;2022-12-29T00:28:47;3.23;;;3.13;;
7154;SDS011;3619;53.784;10.440;2022-12-29T00:31:32;3.37;;;3.27;;
7154;SDS011;3619;53.784;10.440;2022-12-29T00:34:17;3.07;;;2.97;;
7154;SDS011;3619;53.784;10.440;2022-12-29T00:37:00;3.50;;;3.40;;
7154;SDS011;3619;53.784;10.440;2022-12-29T00:39:31;3.40;;;3.30;;
7154;SDS011;3619;53.784;10.440;2022-12-29T00:42:17;4.17;;;4.07;;
7154;SDS011;3619;53.784;10.440;2022-12-29T00:44:58;4.03;;;3.93;;
7154;SDS011;3619;53.784;10.440;2022-12-29T00:47:28;3.80;;;3.70;;
7154;SDS011;3619;53.784;10.440;2022-12-29T00:49:55;4.33;;;4.23;;
7154;SDS011;3619;53.784;10.440;2022-12-29T00:52:21;5.13;;;4.93;;
7154;SDS011;3619;53.784;10.440;2022-12-29T00:54:48;4.10;;;4.00;;
7154;SDS011;3619;53.784;10.440;2022-12-29T00:57:28;4.80;;;4.60;;
7154;SDS011;3619;53.784;10.440;2022-12-29T01:00:07;4.20;;;4.10;;
7154;SDS011;3619;53.784;10.440;2022-12-29T01:02:36;4.87;;;4.67;;
7154;SDS011;3619;53.784;10.440;2022-12-29T01:05:04;5.67;;;5.47;;
7154;SDS011;3619;53.784;10.440;2022-12-29T01:07:33;5.43;;;5.23;;
7154;SDS011;3619;53.784;10.440;2022-12-29T01:10:02;5.23;;;5.03;;
7154;SDS011;3619;53.784;10.440;2022-12-29T01:12:39;4.87;;;4.67;;
7154;SDS011;3619;53.784;10.440;2022-12-29T01:15:07;5.47;;;5.27;;
7154;SDS011;3619;53.784;10.440;2022-12-29T01:17:42;4.93;;;4.73;;
7154;SDS011;3619;53.784;10.440;2022-12-29T01:20:12;5.20;;;5.00;;
7154;SDS011;3619;53.784;10.440;2022-12-29T01:22:39;5.80;;;5.60;;
7154;SDS011;3619;53.784;10.440;2022-12-29T01:25:22;5.33;;;5.13;;
7154;SDS011;3619;53.784;10.440;2022-12-29T01:27:53;6.10;;;5.90;;
7154;SDS011;3619;53.784;10.440;2022-12-29T01:30:59;5.47;;;5.27;;
7154;SDS011;3619;53.784;10.440;2022-12-29T01:33:42;5.50;;;5.30;;
7154;SDS011;3619;53.784;10.440;2022-12-29T01:36:25;5.30;;;5.10;;
7154;SDS011;3619;53.784;10.440;2022-12-29T01:38:54;4.50;;;4.30;;
7154;SDS011;3619;53.784;10.440;2022-12-29T01:41:23;5.20;;;5.00;;
7154;SDS011;3619;53.784;10.440;2022-12-29T01:43:52;5.00;;;4.80;;
7154;SDS011;3619;53.784;10.440;2022-12-29T01:46:29;4.60;;;4.40;;
7154;SDS011;3619;53.784;10.440;2022-12-29T01:52:35;5.27;;;5.07;;
7154;SDS011;3619;53.784;10.440;2022-12-29T01:55:06;5.83;;;5.63;;
7154;SDS011;3619;53.784;10.440;2022-12-29T01:57:38;5.97;;;5.77;;
7154;SDS011;3619;53.784;10.440;2022-12-29T02:00:16;5.57;;;5.37;;
7154;SDS011;3619;53.784;10.440;2022-12-29T02:02:50;5.77;;;5.57;;
7154;SDS011;3619;53.784;10.440;2022-12-29T02:05:59;6.60;;;6.40;;
7154;SDS011;3619;53.784;10.440;2022-12-29T02:12:40;6.00;;;5.80;;
7154;SDS011;3619;53.784;10.440;2022-12-29T02:15:25;6.10;;;5.90;;
7154;SDS011;3619;53.784;10.440;2022-12-29T02:18:22;5.83;;;5.63;;
7154;SDS011;3619;53.784;10.440;2022-12-29T02:21:10;6.10;;;5.90;;
7154;SDS011;3619;53.784;10.440;2022-12-29T02:24:28;5.77;;;5.57;;
7154;SDS011;3619;53.784;10.440;2022-12-29T02:27:33;5.63;;;5.43;;
7154;SDS011;3619;53.784;10.440;2022-12-29T02:34:14;5.40;;;5.20;;
7154;SDS011;3619;53.784;10.440;2022-12-29T02:36:35;4.73;;;4.53;;
7154;SDS011;3619;53.784;10.440;2022-12-29T02:39:10;5.17;;;4.97;;
7154;SDS011;3619;53.784;10.440;2022-12-29T02:41:42;5.17;;;4.97;;
7154;SDS011;3619;53.784;10.440;2022-12-29T02:44:29;5.17;;;4.97;;
7154;SDS011;3619;53.784;10.440;2022-12-29T02:47:14;5.23;;;5.03;;
7154;SDS011;3619;53.784;10.440;2022-12-29T02:49:46;4.83;;;4.63;;
7154;SDS011;3619;53.784;10.440;2022-12-29T02:55:47;5.00;;;4.80;;
7154;SDS011;3619;53.784;10.440;2022-12-29T03:01:22;4.87;;;4.67;;
7154;SDS011;3619;53.784;10.440;2022-12-29T03:04:29;6.10;;;5.90;;
7154;SDS011;3619;53.784;10.440;2022-12-29T03:07:12;4.07;;;3.97;;
7154;SDS011;3619;53.784;10.440;2022-12-29T03:13:04;4.57;;;4.37;;
7154;SDS011;3619;53.784;10.440;2022-12-29T03:15:59;4.93;;;4.73;;
7154;SDS011;3619;53.784;10.440;2022-12-29T03:18:44;5.57;;;5.37;;
7154;SDS011;3619;53.784;10.440;2022-12-29T03:24:42;4.60;;;4.40;;
7154;SDS011;3619;53.784;10.440;2022-12-29T03:27:43;5.20;;;5.00;;
7154;SDS011;3619;53.784;10.440;2022-12-29T03:30:41;4.93;;;4.73;;
7154;SDS011;3619;53.784;10.440;2022-12-29T03:34:12;5.57;;;5.37;;
7154;SDS011;3619;53.784;10.440;2022-12-29T03:40:16;4.90;;;4.70;;
7154;SDS011;3619;53.784;10.440;2022-12-29T03:43:01;4.23;;;4.13;;
7154;SDS011;3619;53.784;10.440;2022-12-29T03:45:43;4.27;;;4.17;;
7154;SDS011;3619;53.784;10.440;2022-12-29T03:48:40;8.43;;;7.67;;
7154;SDS011;3619;53.784;10.440;2022-12-29T03:51:40;4.97;;;4.77;;
7154;SDS011;3619;53.784;10.440;2022-12-29T03:54:17;4.97;;;4.77;;
7154;SDS011;3619;53.784;10.440;2022-12-29T04:00:18;4.93;;;4.73;;
7154;SDS011;3619;53.784;10.440;2022-12-29T04:03:15;5.50;;;5.30;;
7154;SDS011;3619;53.784;10.440;2022-12-29T04:09:27;4.87;;;4.67;;
7154;SDS011;3619;53.784;10.440;2022-12-29T04:12:04;5.53;;;5.33;;
7154;SDS011;3619;53.784;10.440;2022-12-29T04:14:32;5.70;;;5.50;;
7154;SDS011;3619;53.784;10.440;2022-12-29T04:17:01;5.70;;;5.50;;
7154;SDS011;3619;53.784;10.440;2022-12-29T04:19:42;5.70;;;5.50;;
7154;SDS011;3619;53.784;10.440;2022-12-29T04:25:37;5.37;;;5.17;;
7154;SDS011;3619;53.784;10.440;2022-12-29T04:38:06;6.33;;;6.13;;
7154;SDS011;3619;53.784;10.440;2022-12-29T04:44:29;6.97;;;6.70;;
7154;SDS011;3619;53.784;10.440;2022-12-29T04:47:01;7.67;;;7.37;;
7154;SDS011;3619;53.784;10.440;2022-12-29T04:49:38;8.10;;;7.80;;
7154;SDS011;3619;53.784;10.440;2022-12-29T04:52:05;7.70;;;7.40;;
7154;SDS011;3619;53.784;10.440;2022-12-29T04:54:34;8.40;;;8.10;;
7154;SDS011;3619;53.784;10.440;2022-12-29T04:57:01;8.87;;;8.57;;
7154;SDS011;3619;53.784;10.440;2022-12-29T04:59:33;7.93;;;7.63;;
7154;SDS011;3619;53.784;10.440;2022-12-29T05:02:05;8.73;;;8.43;;
7154;SDS011;3619;53.784;10.440;2022-12-29T05:04:36;8.77;;;8.47;;
7154;SDS011;3619;53.784;10.440;2022-12-29T05:07:07;8.60;;;8.30;;
7154;SDS011;3619;53.784;10.440;2022-12-29T05:09:37;8.97;;;8.67;;
7154;SDS011;3619;53.784;10.440;2022-12-29T05:12:03;8.53;;;8.23;;
7154;SDS011;3619;53.784;10.440;2022-12-29T05:14:31;9.40;;;9.10;;
7154;SDS011;3619;53.784;10.440;2022-12-29T05:17:00;10.53;;;10.13;;
7154;SDS011;3619;53.784;10.440;2022-12-29T05:19:30;8.87;;;8.57;;
7154;SDS011;3619;53.784;10.440;2022-12-29T05:22:00;10.27;;;9.87;;
7154;SDS011;3619;53.784;10.440;2022-12-29T05:24:28;9.17;;;8.87;;
7154;SDS011;3619;53.784;10.440;2022-12-29T05:27:06;9.13;;;8.83;;
7154;SDS011;3619;53.784;10.440;2022-12-29T05:29:41;8.67;;;8.37;;
7154;SDS011;3619;53.784;10.440;2022-12-29T05:32:33;8.73;;;8.43;;
7154;SDS011;3619;53.784;10.440;2022-12-29T05:35:55;8.27;;;7.97;;
7154;SDS011;3619;53.784;10.440;2022-12-29T05:41:38;8.00;;;7.70;;
7154;SDS011;3619;53.784;10.440;2022-12-29T05:47:24;7.40;;;7.10;;
7154;SDS011;3619;53.784;10.440;2022-12-29T05:49:51;6.73;;;6.53;;
7154;SDS011;3619;53.784;10.440;2022-12-29T05:53:09;6.23;;;6.03;;
7154;SDS011;3619;53.784;10.440;2022-12-29T05:55:50;7.10;;;6.80;;
7154;SDS011;3619;53.784;10.440;2022-12-29T05:58:45;6.57;;;6.37;;
7154;SDS011;3619;53.784;10.440;2022-12-29T06:01:29;7.40;;;7.10;;
7154;SDS011;3619;53.784;10.440;2022-12-29T06:07:29;6.40;;;6.20;;
7154;SDS011;3619;53.784;10.440;2022-12-29T06:10:12;6.80;;;6.60;;
7154;SDS011;3619;53.784;10.440;2022-12-29T06:12:41;8.03;;;7.73;;
7154;SDS011;3619;53.784;10.440;2022-12-29T06:15:10;7.07;;;6.80;;
7154;SDS011;3619;53.784;10.440;2022-12-29T06:17:41;7.07;;;6.77;;
7154;SDS011;3619;53.784;10.440;2022-12-29T06:22:16;6.23;;;6.03;;
7154;SDS011;3619;53.784;10.440;2022-12-29T06:27:18;6.67;;;6.47;;
7154;SDS011;3619;53.784;10.440;2022-12-29T06:29:59;7.10;;;6.80;;
7154;SDS011;3619;53.784;10.440;2022-12-29T06:32:26;7.10;;;6.80;;
7154;SDS011;3619;53.784;10.440;2022-12-29T06:34:57;7.97;;;7.67;;
7154;SDS011;3619;53.784;10.440;2022-12-29T06:40:28;6.77;;;6.57;;
7154;SDS011;3619;53.784;10.440;2022-12-29T06:40:44;6.73;;;6.53;;
7154;SDS011;3619;53.784;10.440;2022-12-29T06:43:25;7.73;;;7.43;;
7154;SDS011;3619;53.784;10.440;2022-12-29T06:45:58;8.07;;;7.77;;
7154;SDS011;3619;53.784;10.440;2022-12-29T06:48:27;8.73;;;8.43;;
7154;SDS011;3619;53.784;10.440;2022-12-29T06:50:58;9.13;;;8.83;;
7154;SDS011;3619;53.784;10.440;2022-12-29T06:53:34;9.13;;;8.83;;
7154;SDS011;3619;53.784;10.440;2022-12-29T06:56:02;9.63;;;9.23;;
7154;SDS011;3619;53.784;10.440;2022-12-29T06:58:32;9.70;;;9.30;;
7154;SDS011;3619;53.784;10.440;2022-12-29T07:01:06;10.27;;;9.87;;
7154;SDS011;3619;53.784;10.440;2022-12-29T07:09:43;11.40;;;11.00;;
7154;SDS011;3619;53.784;10.440;2022-12-29T07:12:16;11.97;;;11.57;;
7154;SDS011;3619;53.784;10.440;2022-12-29T07:15:05;11.63;;;11.23;;
7154;SDS011;3619;53.784;10.440;2022-12-29T07:17:44;12.43;;;11.93;;
7154;SDS011;3619;53.784;10.440;2022-12-29T07:20:35;12.33;;;11.83;;
7154;SDS011;3619;53.784;10.440;2022-12-29T07:23:31;12.97;;;12.47;;
7154;SDS011;3619;53.784;10.440;2022-12-29T07:26:39;15.13;;;14.53;;
7154;SDS011;3619;53.784;10.440;2022-12-29T07:29:10;16.53;;;15.93;;
7154;SDS011;3619;53.784;10.440;2022-12-29T07:38:16;14.87;;;14.27;;
7154;SDS011;3619;53.784;10.440;2022-12-29T07:44:24;15.70;;;15.10;;
7154;SDS011;3619;53.784;10.440;2022-12-29T07:47:10;14.00;;;13.50;;
7154;SDS011;3619;53.784;10.440;2022-12-29T07:57:15;12.97;;;12.47;;
7154;SDS011;3619;53.784;10.440;2022-12-29T07:59:55;13.17;;;12.67;;
7154;SDS011;3619;53.784;10.440;2022-12-29T08:03:12;14.63;;;14.13;;
7154;SDS011;3619;53.784;10.440;2022-12-29T08:06:19;13.70;;;13.20;;
7154;SDS011;3619;53.784;10.440;2022-12-29T08:12:29;13.13;;;12.63;;
7154;SDS011;3619;53.784;10.440;2022-12-29T08:15:28;12.53;;;12.03;;
7154;SDS011;3619;53.784;10.440;2022-12-29T08:17:55;11.70;;;11.30;;
7154;SDS011;3619;53.784;10.440;2022-12-29T08:20:24;11.83;;;11.43;;
7154;SDS011;3619;53.784;10.440;2022-12-29T08:23:31;12.00;;;11.57;;
7154;SDS011;3619;53.784;10.440;2022-12-29T08:26:15;11.37;;;10.97;;
7154;SDS011;3619;53.784;10.440;2022-12-29T08:29:34;12.00;;;11.60;;
7154;SDS011;3619;53.784;10.440;2022-12-29T08:32:18;12.23;;;11.73;;
7154;SDS011;3619;53.784;10.440;2022-12-29T08:35:21;11.87;;;11.47;;
7154;SDS011;3619;53.784;10.440;2022-12-29T08:38:16;10.60;;;10.20;;
7154;SDS011;3619;53.784;10.440;2022-12-29T08:40:46;11.07;;;10.67;;
7154;SDS011;3619;53.784;10.440;2022-12-29T08:43:33;10.70;;;10.30;;
7154;SDS011;3619;53.784;10.440;2022-12-29T08:46:16;10.23;;;9.83;;
7154;SDS011;3619;53.784;10.440;2022-12-29T08:48:52;10.13;;;9.73;;
7154;SDS011;3619;53.784;10.440;2022-12-29T08:55:04;10.87;;;10.47;;
7154;SDS011;3619;53.784;10.440;2022-12-29T08:57:36;10.57;;;10.17;;
7154;SDS011;3619;53.784;10.440;2022-12-29T09:00:03;10.20;;;9.80;;
7154;SDS011;3619;53.784;10.440;2022-12-29T09:02:32;10.67;;;10.27;;
7154;SDS011;3619;53.784;10.440;2022-12-29T09:05:03;10.17;;;9.77;;
7154;SDS011;3619;53.784;10.440;2022-12-29T09:07:30;11.13;;;10.73;;
7154;SDS011;3619;53.784;10.440;2022-12-29T09:09:59;11.33;;;10.93;;
7154;SDS011;3619;53.784;10.440;2022-12-29T09:12:29;13.80;;;13.30;;
7154;SDS011;3619;53.784;10.440;2022-12-29T09:16:39;12.87;;;12.37;;
7154;SDS011;3619;53.784;10.440;2022-12-29T09:21:23;12.50;;;12.00;;
7154;SDS011;3619;53.784;10.440;2022-12-29T09:24:25;50.33;;;30.33;;
7154;SDS011;3619;53.784;10.440;2022-12-29T09:27:02;13.07;;;12.57;;
7154;SDS011;3619;53.784;10.440;2022-12-29T09:29:35;11.60;;;11.20;;
7154;SDS011;3619;53.784;10.440;2022-12-29T09:32:25;13.70;;;13.20;;
7154;SDS011;3619;53.784;10.440;2022-12-29T09:35:26;13.47;;;12.97;;
7154;SDS011;3619;53.784;10.440;2022-12-29T09:38:35;16.67;;;16.07;;
7154;SDS011;3619;53.784;10.440;2022-12-29T09:41:05;16.47;;;15.87;;
7154;SDS011;3619;53.784;10.440;2022-12-29T09:43:46;16.57;;;15.97;;
7154;SDS011;3619;53.784;10.440;2022-12-29T09:46:40;19.07;;;18.37;;
7154;SDS011;3619;53.784;10.440;2022-12-29T09:49:58;21.43;;;20.63;;
7154;SDS011;3619;53.784;10.440;2022-12-29T09:52:52;21.47;;;20.67;;
7154;SDS011;3619;53.784;10.440;2022-12-29T09:55:43;21.33;;;20.53;;
7154;SDS011;3619;53.784;10.440;2022-12-29T09:58:20;22.70;;;21.80;;
7154;SDS011;3619;53.784;10.440;2022-12-29T10:01:01;25.13;;;24.17;;
7154;SDS011;3619;53.784;10.440;2022-12-29T10:03:36;28.30;;;27.20;;
7154;SDS011;3619;53.784;10.440;2022-12-29T10:06:54;35.50;;;34.13;;
7154;SDS011;3619;53.784;10.440;2022-12-29T10:09:50;27.47;;;26.47;;
7154;SDS011;3619;53.784;10.440;2022-12-29T10:12:33;29.83;;;28.73;;
7154;SDS011;3619;53.784;10.440;2022-12-29T10:19:25;31.70;;;30.50;;
7154;SDS011;3619;53.784;10.440;2022-12-29T10:22:09;32.17;;;30.97;;
7154;SDS011;3619;53.784;10.440;2022-12-29T10:24:58;30.53;;;29.37;;
7154;SDS011;3619;53.784;10.440;2022-12-29T10:27:42;32.80;;;31.57;;
7154;SDS011;3619;53.784;10.440;2022-12-29T10:30:32;36.40;;;35.00;;
7154;SDS011;3619;53.784;10.440;2022-12-29T10:33:17;36.43;;;35.03;;
7154;SDS011;3619;53.784;10.440;2022-12-29T10:39:12;35.27;;;33.93;;
7154;SDS011;3619;53.784;10.440;2022-12-29T10:41:55;39.20;;;37.70;;
7154;SDS011;3619;53.784;10.440;2022-12-29T10:44:35;38.50;;;37.00;;
7154;SDS011;3619;53.784;10.440;2022-12-29T10:47:02;36.50;;;35.10;;
7154;SDS011;3619;53.784;10.440;2022-12-29T10:49:35;42.00;;;40.40;;
7154;SDS011;3619;53.784;10.440;2022-12-29T10:52:07;43.70;;;42.00;;
7154;SDS011;3619;53.784;10.440;2022-12-29T10:54:38;47.20;;;45.40;;
7154;SDS011;3619;53.784;10.440;2022-12-29T10:57:26;47.43;;;45.63;;
7154;SDS011;3619;53.784;10.440;2022-12-29T11:00:00;44.30;;;42.60;;
7154;SDS011;3619;53.784;10.440;2022-12-29T11:02:49;43.63;;;41.93;;
7154;SDS011;3619;53.784;10.440;2022-12-29T11:05:49;43.47;;;41.80;;
7154;SDS011;3619;53.784;10.440;2022-12-29T11:08:24;46.60;;;44.80;;
7154;SDS011;3619;53.784;10.440;2022-12-29T11:10:57;47.97;;;46.17;;
7154;SDS011;3619;53.784;10.440;2022-12-29T11:13:26;49.10;;;47.20;;
7154;SDS011;3619;53.784;10.440;2022-12-29T11:15:56;50.73;;;48.83;;
7154;SDS011;3619;53.784;10.440;2022-12-29T11:18:26;51.43;;;49.43;;
7154;SDS011;3619;53.784;10.440;2022-12-29T11:20:59;47.70;;;45.90;;
7154;SDS011;3619;53.784;10.440;2022-12-29T11:23:31;48.27;;;46.40;;
7154;SDS011;3619;53.784;10.440;2022-12-29T11:26:11;48.90;;;47.00;;
7154;SDS011;3619;53.784;10.440;2022-12-29T11:28:41;55.10;;;53.00;;
7154;SDS011;3619;53.784;10.440;2022-12-29T11:31:15;54.50;;;52.40;;
7154;SDS011;3619;53.784;10.440;2022-12-29T11:33:44;50.70;;;48.80;;
7154;SDS011;3619;53.784;10.440;2022-12-29T11:36:16;47.80;;;46.00;;
7154;SDS011;3619;53.784;10.440;2022-12-29T11:38:49;47.73;;;45.93;;
7154;SDS011;3619;53.784;10.440;2022-12-29T11:41:52;49.53;;;47.63;;
7154;SDS011;3619;53.784;10.440;2022-12-29T11:47:51;42.40;;;40.80;;
7154;SDS011;3619;53.784;10.440;2022-12-29T11:50:26;46.43;;;44.63;;
7154;SDS011;3619;53.784;10.440;2022-12-29T11:53:01;43.23;;;41.60;;
7154;SDS011;3619;53.784;10.440;2022-12-29T11:55:37;39.83;;;38.33;;
7154;SDS011;3619;53.784;10.440;2022-12-29T11:58:11;39.60;;;38.10;;
7154;SDS011;3619;53.784;10.440;2022-12-29T12:00:42;32.70;;;31.30;;
7154;SDS011;3619;53.784;10.440;2022-12-29T12:03:14;38.33;;;36.83;;
7154;SDS011;3619;53.784;10.440;2022-12-29T12:05:46;38.60;;;37.10;;
7154;SDS011;3619;53.784;10.440;2022-12-29T12:08:18;37.57;;;36.17;;
7154;SDS011;3619;53.784;10.440;2022-12-29T12:10:50;34.10;;;32.80;;
7154;SDS011;3619;53.784;10.440;2022-12-29T12:13:25;31.23;;;30.03;;
7154;SDS011;3619;53.784;10.440;2022-12-29T12:15:57;34.77;;;33.47;;
7154;SDS011;3619;53.784;10.440;2022-12-29T12:18:45;37.53;;;36.13;;
7154;SDS011;3619;53.784;10.440;2022-12-29T12:21:18;33.53;;;32.23;;
7154;SDS011;3619;53.784;10.440;2022-12-29T12:24:00;34.63;;;33.33;;
7154;SDS011;3619;53.784;10.440;2022-12-29T12:26:55;26.77;;;25.77;;
7154;SDS011;3619;53.784;10.440;2022-12-29T12:29:35;30.67;;;29.47;;
7154;SDS011;3619;53.784;10.440;2022-12-29T12:32:12;28.83;;;27.73;;
7154;SDS011;3619;53.784;10.440;2022-12-29T12:34:44;26.80;;;25.80;;
7154;SDS011;3619;53.784;10.440;2022-12-29T12:37:33;26.13;;;25.13;;
7154;SDS011;3619;53.784;10.440;2022-12-29T12:40:39;28.47;;;27.37;;
7154;SDS011;3619;53.784;10.440;2022-12-29T12:43:31;29.00;;;27.90;;
7154;SDS011;3619;53.784;10.440;2022-12-29T12:46:15;24.73;;;23.83;;
7154;SDS011;3619;53.784;10.440;2022-12-29T12:51:44;21.20;;;20.40;;
7154;SDS011;3619;53.784;10.440;2022-12-29T12:54:29;24.23;;;23.33;;
7154;SDS011;3619;53.784;10.440;2022-12-29T12:57:09;20.80;;;20.00;;
7154;SDS011;3619;53.784;10.440;2022-12-29T12:59:49;19.47;;;18.77;;
7154;SDS011;3619;53.784;10.440;2022-12-29T13:02:30;21.87;;;21.07;;
7154;SDS011;3619;53.784;10.440;2022-12-29T13:11:09;19.77;;;19.07;;
7154;SDS011;3619;53.784;10.440;2022-12-29T13:14:01;20.63;;;19.83;;
7154;SDS011;3619;53.784;10.440;2022-12-29T13:16:40;22.27;;;21.47;;
7154;SDS011;3619;53.784;10.440;2022-12-29T13:19:17;18.13;;;17.43;;
7154;SDS011;3619;53.784;10.440;2022-12-29T13:21:57;21.73;;;20.93;;
7154;SDS011;3619;53.784;10.440;2022-12-29T13:25:08;24.10;;;23.20;;
7154;SDS011;3619;53.784;10.440;2022-12-29T13:28:04;20.33;;;19.53;;
7154;SDS011;3619;53.784;10.440;2022-12-29T13:31:35;21.87;;;21.07;;
7154;SDS011;3619;53.784;10.440;2022-12-29T13:34:30;23.43;;;22.53;;
7154;SDS011;3619;53.784;10.440;2022-12-29T13:37:24;18.47;;;17.77;;
7154;SDS011;3619;53.784;10.440;2022-12-29T13:40:10;16.47;;;15.87;;
7154;SDS011;3619;53.784;10.440;2022-12-29T13:42:40;18.60;;;17.90;;
7154;SDS011;3619;53.784;10.440;2022-12-29T13:45:13;17.00;;;16.40;;
7154;SDS011;3619;53.784;10.440;2022-12-29T13:47:46;16.70;;;16.10;;
7154;SDS011;3619;53.784;10.440;2022-12-29T13:50:19;19.80;;;19.10;;
7154;SDS011;3619;53.784;10.440;2022-12-29T13:52:49;21.93;;;21.13;;
7154;SDS011;3619;53.784;10.440;2022-12-29T13:55:35;18.27;;;17.57;;
7154;SDS011;3619;53.784;10.440;2022-12-29T13:58:09;17.03;;;16.43;;
7154;SDS011;3619;53.784;10.440;2022-12-29T14:00:46;15.60;;;15.00;;
7154;SDS011;3619;53.784;10.440;2022-12-29T14:03:24;14.60;;;14.07;;
7154;SDS011;3619;53.784;10.440;2022-12-29T14:06:18;11.23;;;10.83;;
7154;SDS011;3619;53.784;10.440;2022-12-29T14:08:48;9.73;;;9.33;;
7154;SDS011;3619;53.784;10.440;2022-12-29T14:11:20;10.17;;;9.77;;
7154;SDS011;3619;53.784;10.440;2022-12-29T14:13:50;10.13;;;9.73;;
7154;SDS011;3619;53.784;10.440;2022-12-29T14:16:30;8.77;;;8.47;;
7154;SDS011;3619;53.784;10.440;2022-12-29T14:19:05;9.33;;;9.03;;
7154;SDS011;3619;53.784;10.440;2022-12-29T14:21:39;8.73;;;8.43;;
7154;SDS011;3619;53.784;10.440;2022-12-29T14:33:18;9.20;;;8.90;;
7154;SDS011;3619;53.784;10.440;2022-12-29T14:35:49;9.73;;;9.33;;
7154;SDS011;3619;53.784;10.440;2022-12-29T14:47:56;9.13;;;8.83;;
7154;SDS011;3619;53.784;10.440;2022-12-29T15:17:09;12.57;;;12.07;;
7154;SDS011;3619;53.784;10.440;2022-12-29T15:24:11;11.17;;;10.77;;
7154;SDS011;3619;53.784;10.440;2022-12-29T15:26:52;10.50;;;10.10;;
7154;SDS011;3619;53.784;10.440;2022-12-29T15:29:37;11.83;;;11.43;;
7154;SDS011;3619;53.784;10.440;2022-12-29T15:32:21;10.77;;;10.37;;
7154;SDS011;3619;53.784;10.440;2022-12-29T15:34:50;11.57;;;11.17;;
7154;SDS011;3619;53.784;10.440;2022-12-29T15:37:35;10.50;;;10.10;;
7154;SDS011;3619;53.784;10.440;2022-12-29T15:40:19;12.40;;;11.90;;
7154;SDS011;3619;53.784;10.440;2022-12-29T15:46:59;12.67;;;12.17;;
7154;SDS011;3619;53.784;10.440;2022-12-29T15:56:52;13.20;;;12.70;;
7154;SDS011;3619;53.784;10.440;2022-12-29T16:02:26;14.93;;;14.33;;
7154;SDS011;3619;53.784;10.440;2022-12-29T16:05:07;12.60;;;12.10;;
7154;SDS011;3619;53.784;10.440;2022-12-29T16:07:58;13.13;;;12.63;;
7154;SDS011;3619;53.784;10.440;2022-12-29T16:10:54;11.77;;;11.37;;
7154;SDS011;3619;53.784;10.440;2022-12-29T16:13:23;12.97;;;12.47;;
7154;SDS011;3619;53.784;10.440;2022-12-29T16:15:59;15.17;;;14.57;;
7154;SDS011;3619;53.784;10.440;2022-12-29T16:18:32;15.47;;;14.87;;
7154;SDS011;3619;53.784;10.440;2022-12-29T16:21:14;14.90;;;14.33;;
7154;SDS011;3619;53.784;10.440;2022-12-29T16:23:46;15.27;;;14.67;;
7154;SDS011;3619;53.784;10.440;2022-12-29T16:26:17;14.33;;;13.83;;
7154;SDS011;3619;53.784;10.440;2022-12-29T16:28:51;14.90;;;14.30;;
7154;SDS011;3619;53.784;10.440;2022-12-29T16:31:32;15.10;;;14.50;;
7154;SDS011;3619;53.784;10.440;2022-12-29T16:34:10;14.40;;;13.90;;
7154;SDS011;3619;53.784;10.440;2022-12-29T16:37:05;14.10;;;13.60;;
7154;SDS011;3619;53.784;10.440;2022-12-29T16:40:13;13.00;;;12.50;;
7154;SDS011;3619;53.784;10.440;2022-12-29T16:43:20;15.00;;;14.40;;
7154;SDS011;3619;53.784;10.440;2022-12-29T16:49:36;16.07;;;15.47;;
7154;SDS011;3619;53.784;10.440;2022-12-29T16:52:13;13.37;;;12.87;;
7154;SDS011;3619;53.784;10.440;2022-12-29T16:55:23;13.73;;;13.23;;
7154;SDS011;3619;53.784;10.440;2022-12-29T16:58:04;14.43;;;13.93;;
7154;SDS011;3619;53.784;10.440;2022-12-29T17:00:35;12.80;;;12.30;;
7154;SDS011;3619;53.784;10.440;2022-12-29T17:03:27;12.60;;;12.10;;
7154;SDS011;3619;53.784;10.440;2022-12-29T17:06:19;11.53;;;11.13;;
7154;SDS011;3619;53.784;10.440;2022-12-29T17:08:50;12.50;;;12.00;;
7154;SDS011;3619;53.784;10.440;2022-12-29T17:14:44;11.50;;;11.10;;
7154;SDS011;3619;53.784;10.440;2022-12-29T17:17:46;13.93;;;13.43;;
7154;SDS011;3619;53.784;10.440;2022-12-29T17:20:42;12.00;;;11.60;;
7154;SDS011;3619;53.784;10.440;2022-12-29T17:23:41;13.00;;;12.50;;
7154;SDS011;3619;53.784;10.440;2022-12-29T17:26:33;12.43;;;11.93;;
7154;SDS011;3619;53.784;10.440;2022-12-29T17:29:01;12.40;;;11.90;;
7154;SDS011;3619;53.784;10.440;2022-12-29T17:31:29;12.17;;;11.70;;
7154;SDS011;3619;53.784;10.440;2022-12-29T17:34:08;11.90;;;11.50;;
7154;SDS011;3619;53.784;10.440;2022-12-29T17:36:42;11.93;;;11.53;;
7154;SDS011;3619;53.784;10.440;2022-12-29T17:39:10;13.83;;;13.33;;
7154;SDS011;3619;53.784;10.440;2022-12-29T17:41:41;12.30;;;11.80;;
7154;SDS011;3619;53.784;10.440;2022-12-29T17:47:41;13.70;;;13.20;;
7154;SDS011;3619;53.784;10.440;2022-12-29T17:50:12;13.90;;;13.40;;
7154;SDS011;3619;53.784;10.440;2022-12-29T17:52:42;14.07;;;13.57;;
7154;SDS011;3619;53.784;10.440;2022-12-29T17:55:24;15.20;;;14.60;;
7154;SDS011;3619;53.784;10.440;2022-12-29T17:57:51;13.63;;;13.13;;
7154;SDS011;3619;53.784;10.440;2022-12-29T18:00:21;13.70;;;13.20;;
7154;SDS011;3619;53.784;10.440;2022-12-29T18:03:13;14.20;;;13.70;;
7154;SDS011;3619;53.784;10.440;2022-12-29T18:09:15;15.83;;;15.23;;
7154;SDS011;3619;53.784;10.440;2022-12-29T18:11:48;12.63;;;12.13;;
7154;SDS011;3619;53.784;10.440;2022-12-29T18:14:21;14.30;;;13.80;;
7154;SDS011;3619;53.784;10.440;2022-12-29T18:17:06;13.43;;;12.93;;
7154;SDS011;3619;53.784;10.440;2022-12-29T18:29:10;15.27;;;14.67;;
7154;SDS011;3619;53.784;10.440;2022-12-29T18:31:39;16.27;;;15.67;;
7154;SDS011;3619;53.784;10.440;2022-12-29T18:34:26;16.70;;;16.10;;
7154;SDS011;3619;53.784;10.440;2022-12-29T18:36:54;16.03;;;15.43;;
7154;SDS011;3619;53.784;10.440;2022-12-29T18:39:26;16.53;;;15.93;;
7154;SDS011;3619;53.784;10.440;2022-12-29T18:41:56;17.30;;;16.67;;
7154;SDS011;3619;53.784;10.440;2022-12-29T18:44:25;16.60;;;16.00;;
7154;SDS011;3619;53.784;10.440;2022-12-29T18:46:52;17.10;;;16.50;;
7154;SDS011;3619;53.784;10.440;2022-12-29T18:49:40;16.43;;;15.83;;
7154;SDS011;3619;53.784;10.440;2022-12-29T18:52:11;16.00;;;15.40;;
7154;SDS011;3619;53.784;10.440;2022-12-29T18:57:30;16.90;;;16.30;;
7154;SDS011;3619;53.784;10.440;2022-12-29T18:59:59;17.20;;;16.60;;
7154;SDS011;3619;53.784;10.440;2022-12-29T19:02:26;16.90;;;16.30;;
7154;SDS011;3619;53.784;10.440;2022-12-29T19:04:55;19.63;;;18.93;;
7154;SDS011;3619;53.784;10.440;2022-12-29T19:10:55;20.20;;;19.40;;
7154;SDS011;3619;53.784;10.440;2022-12-29T19:16:56;22.43;;;21.60;;
7154;SDS011;3619;53.784;10.440;2022-12-29T19:19:45;23.37;;;22.47;;
7154;SDS011;3619;53.784;10.440;2022-12-29T19:22:47;22.20;;;21.40;;
7154;SDS011;3619;53.784;10.440;2022-12-29T19:27:53;22.07;;;21.27;;
7154;SDS011;3619;53.784;10.440;2022-12-29T19:29:01;20.33;;;19.53;;
7154;SDS011;3619;53.784;10.440;2022-12-29T19:32:23;20.77;;;19.97;;
7154;SDS011;3619;53.784;10.440;2022-12-29T19:35:28;20.27;;;19.47;;
7154;SDS011;3619;53.784;10.440;2022-12-29T19:38:30;20.33;;;19.53;;
7154;SDS011;3619;53.784;10.440;2022-12-29T19:40:57;18.87;;;18.17;;